createdAt,value
2018-01-16T00:00:41.407Z,13.35
2018-01-16T00:01:47.123Z,9.73
2018-01-16T00:02:53.592Z,8.27
2018-01-16T00:03:59.485Z,11.50
2018-01-16T00:05:05.373Z,11.00
2018-01-16T00:06:11.894Z,12.15
2018-01-16T00:07:17.619Z,11.95
2018-01-16T00:08:23.323Z,8.63
2018-01-16T00:09:29.783Z,9.10
2018-01-16T00:10:35.494Z,9.15
2018-01-16T00:11:42.006Z,15.35
2018-01-16T00:12:47.742Z,9.05
2018-01-16T00:13:53.452Z,4.93
2018-01-16T00:14:59.196Z,12.55
2018-01-16T00:16:04.948Z,7.28
2018-01-16T00:17:10.702Z,6.40
2018-01-16T00:18:16.496Z,8.00
2018-01-16T00:19:22.212Z,6.32
2018-01-16T00:20:27.997Z,6.85
2018-01-16T00:21:34.563Z,9.38
2018-01-16T00:22:43.477Z,6.78
2018-01-16T00:23:49.995Z,5.95
2018-01-16T00:24:55.898Z,4.90
2018-01-16T00:26:01.656Z,4.93
2018-01-16T00:27:07.188Z,6.32
2018-01-16T00:28:13.696Z,4.70
2018-01-16T00:29:20.303Z,5.07
2018-01-16T00:30:26.125Z,5.45
2018-01-16T00:31:31.845Z,5.53
2018-01-16T00:32:37.564Z,7.30
2018-01-16T00:33:43.312Z,6.37
2018-01-16T00:34:49.795Z,4.05
2018-01-16T00:35:56.295Z,4.93
2018-01-16T00:37:02.011Z,6.15
2018-01-16T00:38:07.741Z,6.07
2018-01-16T00:39:14.239Z,6.47
2018-01-16T00:40:19.971Z,3.30
2018-01-16T00:41:25.683Z,2.95
2018-01-16T00:42:32.259Z,1.92
2018-01-16T00:43:37.073Z,3.15
2018-01-16T00:44:42.829Z,5.30
2018-01-16T00:45:48.563Z,3.05
2018-01-16T00:46:54.080Z,3.22
2018-01-16T00:48:00.579Z,4.90
2018-01-16T00:49:06.311Z,2.65
2018-01-16T00:50:12.084Z,3.55
2018-01-16T00:51:17.807Z,3.87
2018-01-16T00:52:23.535Z,2.15
2018-01-16T00:53:29.256Z,2.35
2018-01-16T00:54:35.039Z,3.25
2018-01-16T00:55:40.987Z,2.22
2018-01-16T00:56:46.718Z,4.18
2018-01-16T00:57:52.424Z,2.08
2018-01-16T00:58:58.167Z,1.67
2018-01-16T01:00:03.907Z,2.65
2018-01-16T01:01:09.644Z,2.40
2018-01-16T01:02:16.196Z,1.65
2018-01-16T01:03:22.092Z,2.15
2018-01-16T01:04:27.826Z,2.45
2018-01-16T01:05:33.536Z,2.33
2018-01-16T01:06:39.294Z,2.10
2018-01-16T01:07:45.008Z,1.42
2018-01-16T01:08:50.775Z,1.45
2018-01-16T01:09:57.438Z,1.70
2018-01-16T01:11:03.144Z,1.30
2018-01-16T01:12:09.650Z,1.62
2018-01-16T01:13:15.359Z,1.33
2018-01-16T01:14:21.078Z,1.40
2018-01-16T01:15:27.549Z,1.45
2018-01-16T01:16:34.019Z,1.08
2018-01-16T01:17:39.766Z,1.45
2018-01-16T01:18:45.510Z,1.40
2018-01-16T01:19:51.229Z,2.03
2018-01-16T01:20:57.721Z,1.35
2018-01-16T01:22:03.456Z,1.50
2018-01-16T01:23:09.184Z,1.30
2018-01-16T01:24:14.963Z,1.20
2018-01-16T01:25:20.676Z,1.52
2018-01-16T01:26:26.404Z,1.30
2018-01-16T01:27:32.351Z,1.20
2018-01-16T01:28:38.096Z,1.67
2018-01-16T01:29:43.804Z,1.27
2018-01-16T01:30:50.307Z,2.42
2018-01-16T01:31:56.030Z,1.05
2018-01-16T01:33:01.860Z,1.45
2018-01-16T01:34:08.379Z,1.40
2018-01-16T01:35:14.102Z,1.25
2018-01-16T01:36:19.816Z,0.90
2018-01-16T01:37:25.614Z,1.58
2018-01-16T01:38:31.344Z,1.25
2018-01-16T01:39:37.098Z,1.00
2018-01-16T01:40:43.031Z,0.90
2018-01-16T01:41:49.018Z,1.30
2018-01-16T01:42:55.552Z,2.30
2018-01-16T01:44:02.459Z,1.00
2018-01-16T01:45:08.242Z,0.85
2018-01-16T01:46:13.952Z,1.08
2018-01-16T01:47:20.063Z,1.20
2018-01-16T01:48:26.502Z,1.20
2018-01-16T01:49:32.236Z,0.90
2018-01-16T01:50:37.973Z,1.40
2018-01-16T01:51:43.446Z,0.90
2018-01-16T01:52:50.363Z,0.90
2018-01-16T01:53:56.221Z,0.80
2018-01-16T01:55:01.958Z,1.12
2018-01-16T01:56:07.761Z,0.90
2018-01-16T01:57:14.474Z,1.77
2018-01-16T01:58:20.202Z,1.83
2018-01-16T01:59:26.806Z,0.80
2018-01-16T02:00:33.481Z,1.15
2018-01-16T02:01:39.994Z,1.58
2018-01-16T02:02:45.711Z,1.23
2018-01-16T02:03:51.444Z,0.90
2018-01-16T02:04:57.174Z,2.10
2018-01-16T02:06:02.891Z,0.80
2018-01-16T02:07:09.402Z,0.60
2018-01-16T02:08:15.146Z,1.17
2018-01-16T02:09:21.021Z,0.98
2018-01-16T02:10:27.519Z,1.10
2018-01-16T02:11:33.278Z,0.85
2018-01-16T02:12:39.020Z,1.08
2018-01-16T02:13:44.749Z,1.12
2018-01-16T02:14:50.477Z,0.68
2018-01-16T02:15:56.207Z,0.70
2018-01-16T02:17:02.689Z,0.80
2018-01-16T02:18:08.437Z,0.60
2018-01-16T02:19:14.148Z,0.60
2018-01-16T02:20:20.633Z,0.60
2018-01-16T02:21:26.359Z,0.60
2018-01-16T02:22:32.088Z,0.62
2018-01-16T02:23:38.600Z,0.60
2018-01-16T02:24:44.299Z,0.60
2018-01-16T02:25:50.034Z,0.80
2018-01-16T02:26:55.772Z,0.60
2018-01-16T02:28:02.254Z,0.70
2018-01-16T02:29:08.002Z,0.68
2018-01-16T02:30:13.712Z,1.20
2018-01-16T02:31:20.189Z,0.90
2018-01-16T02:32:25.914Z,0.95
2018-01-16T02:33:31.633Z,1.37
2018-01-16T02:34:38.145Z,1.90
2018-01-16T02:35:43.855Z,0.60
2018-01-16T02:36:49.581Z,0.60
2018-01-16T02:37:56.062Z,0.70
2018-01-16T02:39:01.539Z,0.80
2018-01-16T02:40:08.037Z,1.30
2018-01-16T02:41:14.531Z,0.80
2018-01-16T02:42:20.231Z,1.12
2018-01-16T02:43:26.712Z,0.50
2018-01-16T02:44:32.236Z,0.62
2018-01-16T02:45:38.582Z,0.90
2018-01-16T02:46:44.859Z,0.60
2018-01-16T02:47:50.399Z,0.55
2018-01-16T02:48:56.128Z,0.60
2018-01-16T02:50:02.477Z,0.55
2018-01-16T02:51:08.803Z,0.50
2018-01-16T02:52:14.325Z,0.50
2018-01-16T02:53:19.948Z,0.50
2018-01-16T02:54:25.696Z,0.50
2018-01-16T02:55:31.229Z,0.52
2018-01-16T02:56:36.980Z,0.68
2018-01-16T02:57:42.516Z,0.50
2018-01-16T02:58:48.045Z,0.50
2018-01-16T02:59:53.771Z,0.50
2018-01-16T03:00:59.508Z,0.60
2018-01-16T03:02:05.266Z,0.43
2018-01-16T03:03:10.976Z,0.40
2018-01-16T03:04:16.705Z,0.47
2018-01-16T03:05:23.184Z,0.40
2018-01-16T03:06:28.908Z,0.50
2018-01-16T03:07:35.407Z,0.50
2018-01-16T03:08:41.141Z,1.00
2018-01-16T03:09:46.868Z,0.50
2018-01-16T03:10:52.599Z,0.30
2018-01-16T03:11:58.311Z,0.50
2018-01-16T03:13:04.841Z,0.40
2018-01-16T03:14:10.557Z,0.50
2018-01-16T03:15:16.286Z,0.60
2018-01-16T03:16:22.007Z,0.50
2018-01-16T03:17:27.753Z,0.40
2018-01-16T03:18:33.498Z,0.30
2018-01-16T03:19:39.197Z,0.35
2018-01-16T03:20:44.908Z,0.40
2018-01-16T03:21:50.646Z,0.30
2018-01-16T03:22:56.356Z,0.30
2018-01-16T03:24:02.418Z,0.40
2018-01-16T03:25:08.120Z,0.30
2018-01-16T03:26:13.856Z,0.30
2018-01-16T03:27:20.266Z,0.40
2018-01-16T03:28:25.970Z,0.40
2018-01-16T03:29:32.468Z,0.30
2018-01-16T03:30:38.184Z,0.30
2018-01-16T03:31:43.581Z,0.40
2018-01-16T03:32:49.288Z,0.40
2018-01-16T03:33:54.996Z,0.35
2018-01-16T03:35:00.745Z,0.35
2018-01-16T03:36:06.442Z,0.40
2018-01-16T03:37:13.240Z,0.35
2018-01-16T03:38:19.715Z,0.30
2018-01-16T03:39:25.432Z,0.35
2018-01-16T03:40:31.950Z,0.40
2018-01-16T03:41:38.440Z,0.30
2018-01-16T03:42:44.910Z,0.50
2018-01-16T03:43:50.682Z,0.30
2018-01-16T03:44:56.603Z,0.30
2018-01-16T03:46:03.138Z,0.30
2018-01-16T03:47:08.850Z,0.40
2018-01-16T03:48:14.573Z,0.40
2018-01-16T03:49:20.294Z,0.30
2018-01-16T03:50:25.994Z,0.30
2018-01-16T03:51:31.745Z,0.40
2018-01-16T03:52:37.451Z,0.40
2018-01-16T03:53:43.163Z,0.30
2018-01-16T03:54:48.894Z,2.22
2018-01-16T03:55:55.367Z,0.43
2018-01-16T03:57:01.112Z,0.40
2018-01-16T03:58:06.822Z,0.40
2018-01-16T03:59:13.291Z,0.95
2018-01-16T04:00:18.999Z,0.50
2018-01-16T04:01:24.773Z,0.40
2018-01-16T04:02:31.470Z,0.43
2018-01-16T04:03:37.595Z,0.88
2018-01-16T04:04:43.360Z,0.95
2018-01-16T04:05:49.165Z,4.10
2018-01-16T04:06:55.672Z,0.43
2018-01-16T04:08:02.199Z,5.30
2018-01-16T04:09:07.926Z,0.60
2018-01-16T04:10:14.432Z,0.45
2018-01-16T04:11:20.152Z,1.02
2018-01-16T04:12:25.863Z,0.30
2018-01-16T04:13:31.624Z,0.85
2018-01-16T04:14:37.327Z,1.73
2018-01-16T04:15:43.813Z,1.60
2018-01-16T04:16:49.306Z,1.15
2018-01-16T04:17:56.021Z,2.58
2018-01-16T04:19:01.775Z,2.10
2018-01-16T04:20:07.497Z,1.45
2018-01-16T04:21:13.227Z,2.85
2018-01-16T04:22:19.726Z,0.40
2018-01-16T04:23:25.458Z,0.60
2018-01-16T04:24:31.212Z,0.40
2018-01-16T04:25:36.949Z,0.30
2018-01-16T04:26:43.446Z,0.40
2018-01-16T04:27:49.184Z,0.60
2018-01-16T04:28:54.946Z,0.40
2018-01-16T04:30:01.440Z,0.30
2018-01-16T04:31:07.155Z,0.52
2018-01-16T04:32:12.899Z,0.50
2018-01-16T04:33:18.608Z,1.08
2018-01-16T04:34:25.122Z,0.40
2018-01-16T04:35:30.879Z,0.40
2018-01-16T04:36:36.665Z,1.80
2018-01-16T04:37:43.159Z,0.75
2018-01-16T04:38:48.860Z,0.95
2018-01-16T04:39:55.332Z,1.10
2018-01-16T04:41:01.097Z,0.82
2018-01-16T04:42:07.600Z,2.72
2018-01-16T04:43:13.312Z,0.40
2018-01-16T04:44:19.036Z,0.30
2018-01-16T04:45:24.764Z,0.40
2018-01-16T04:46:30.521Z,0.30
2018-01-16T04:47:36.246Z,0.30
2018-01-16T04:48:42.031Z,0.40
2018-01-16T04:49:47.802Z,0.40
2018-01-16T04:50:53.972Z,0.62
2018-01-16T04:51:59.748Z,0.68
2018-01-16T04:53:05.500Z,2.03
2018-01-16T04:54:11.230Z,0.50
2018-01-16T04:55:16.974Z,0.40
2018-01-16T04:56:22.730Z,1.17
2018-01-16T04:57:28.471Z,1.12
2018-01-16T04:58:34.217Z,0.62
2018-01-16T04:59:39.953Z,0.40
2018-01-16T05:00:45.782Z,0.40
2018-01-16T05:01:51.511Z,0.40
2018-01-16T05:02:57.282Z,0.40
2018-01-16T05:04:02.993Z,0.40
2018-01-16T05:05:08.723Z,0.70
2018-01-16T05:06:14.439Z,0.45
2018-01-16T05:07:20.930Z,0.40
2018-01-16T05:08:26.699Z,0.40
2018-01-16T05:09:32.434Z,0.30
2018-01-16T05:10:38.162Z,0.30
2018-01-16T05:11:43.887Z,0.30
2018-01-16T05:12:49.624Z,0.75
2018-01-16T05:13:55.347Z,0.85
2018-01-16T05:15:01.085Z,0.60
2018-01-16T05:16:07.572Z,0.57
2018-01-16T05:17:13.275Z,0.50
2018-01-16T05:18:19.539Z,0.40
2018-01-16T05:19:26.070Z,0.50
2018-01-16T05:20:33.291Z,0.40
2018-01-16T05:21:39.766Z,0.55
2018-01-16T05:22:45.496Z,0.80
2018-01-16T05:23:52.223Z,2.47
2018-01-16T05:24:57.773Z,1.00
2018-01-16T05:26:03.491Z,0.40
2018-01-16T05:27:09.224Z,0.40
2018-01-16T05:28:14.933Z,0.40
2018-01-16T05:29:20.636Z,0.40
2018-01-16T05:30:27.220Z,3.25
2018-01-16T05:31:33.704Z,1.20
2018-01-16T05:32:39.408Z,0.60
2018-01-16T05:33:45.905Z,0.40
2018-01-16T05:34:51.627Z,0.40
2018-01-16T05:35:58.155Z,0.40
2018-01-16T05:37:03.866Z,0.70
2018-01-16T05:38:09.568Z,0.40
2018-01-16T05:39:15.277Z,0.40
2018-01-16T05:40:21.023Z,0.40
2018-01-16T05:41:27.550Z,0.40
2018-01-16T05:42:33.086Z,0.50
2018-01-16T05:43:38.818Z,0.50
2018-01-16T05:44:44.560Z,0.40
2018-01-16T05:45:50.134Z,0.88
2018-01-16T05:46:56.660Z,0.50
2018-01-16T05:48:02.454Z,0.40
2018-01-16T05:49:09.017Z,0.40
2018-01-16T05:50:15.518Z,1.25
2018-01-16T05:51:21.492Z,1.20
2018-01-16T05:52:27.981Z,0.50
2018-01-16T05:53:34.150Z,0.60
2018-01-16T05:54:40.223Z,0.50
2018-01-16T05:55:47.139Z,0.40
2018-01-16T05:56:54.659Z,1.08
2018-01-16T05:58:02.316Z,1.08
2018-01-16T05:59:08.441Z,0.88
2018-01-16T06:00:14.182Z,0.93
2018-01-16T06:01:19.912Z,0.65
2018-01-16T06:02:25.660Z,0.50
2018-01-16T06:03:31.454Z,0.40
2018-01-16T06:04:37.543Z,0.40
2018-01-16T06:05:43.271Z,0.45
2018-01-16T06:06:48.992Z,0.98
2018-01-16T06:07:54.771Z,0.93
2018-01-16T06:09:00.514Z,0.50
2018-01-16T06:10:05.943Z,0.50
2018-01-16T06:11:12.538Z,0.60
2018-01-16T06:12:19.043Z,1.35
2018-01-16T06:13:24.813Z,0.60
2018-01-16T06:14:30.547Z,0.70
2018-01-16T06:15:36.267Z,0.93
2018-01-16T06:16:41.991Z,0.77
2018-01-16T06:17:47.704Z,0.70
2018-01-16T06:18:54.208Z,0.73
2018-01-16T06:19:59.963Z,0.70
2018-01-16T06:21:05.699Z,0.50
2018-01-16T06:22:11.404Z,0.60
2018-01-16T06:23:17.127Z,1.58
2018-01-16T06:24:23.607Z,1.55
2018-01-16T06:25:29.363Z,0.60
2018-01-16T06:26:34.934Z,0.82
2018-01-16T06:27:40.715Z,1.05
2018-01-16T06:28:46.479Z,1.35
2018-01-16T06:29:52.231Z,2.47
2018-01-16T06:30:57.970Z,0.60
2018-01-16T06:32:03.688Z,1.85
2018-01-16T06:33:09.540Z,0.80
2018-01-16T06:34:15.240Z,0.80
2018-01-16T06:35:21.754Z,1.05
2018-01-16T06:36:27.497Z,0.60
2018-01-16T06:37:33.301Z,0.57
2018-01-16T06:38:39.783Z,0.70
2018-01-16T06:39:45.493Z,1.45
2018-01-16T06:40:51.985Z,2.65
2018-01-16T06:41:57.740Z,0.52
2018-01-16T06:43:03.451Z,0.62
2018-01-16T06:44:09.179Z,0.60
2018-01-16T06:45:15.661Z,0.68
2018-01-16T06:46:21.393Z,0.60
2018-01-16T06:47:27.160Z,1.02
2018-01-16T06:48:32.907Z,0.90
2018-01-16T06:49:38.644Z,0.60
2018-01-16T06:50:44.384Z,0.50
2018-01-16T06:51:50.114Z,0.60
2018-01-16T06:52:55.839Z,0.57
2018-01-16T06:54:02.326Z,0.75
2018-01-16T06:55:08.027Z,0.68
2018-01-16T06:56:13.758Z,0.60
2018-01-16T06:57:19.726Z,2.40
2018-01-16T06:58:25.467Z,1.35
2018-01-16T06:59:31.187Z,0.93
2018-01-16T07:00:36.908Z,0.50
2018-01-16T07:01:42.624Z,0.60
2018-01-16T07:02:48.417Z,0.68
2018-01-16T07:03:54.924Z,0.50
2018-01-16T07:05:00.628Z,0.60
2018-01-16T07:06:06.340Z,1.15
2018-01-16T07:07:12.044Z,0.80
2018-01-16T07:08:17.784Z,0.55
2018-01-16T07:09:23.537Z,1.12
2018-01-16T07:10:29.267Z,0.95
2018-01-16T07:11:34.988Z,1.30
2018-01-16T07:12:40.924Z,2.37
2018-01-16T07:13:46.654Z,0.70
2018-01-16T07:14:52.391Z,0.62
2018-01-16T07:15:58.178Z,1.95
2018-01-16T07:17:03.887Z,0.60
2018-01-16T07:18:09.623Z,0.60
2018-01-16T07:19:15.159Z,0.77
2018-01-16T07:20:20.894Z,0.65
2018-01-16T07:21:26.632Z,0.82
2018-01-16T07:22:33.136Z,1.30
2018-01-16T07:23:38.892Z,0.82
2018-01-16T07:24:44.434Z,1.15
2018-01-16T07:25:50.168Z,1.77
2018-01-16T07:26:55.891Z,0.80
2018-01-16T07:28:01.611Z,0.88
2018-01-16T07:29:07.135Z,1.50
2018-01-16T07:30:13.623Z,0.85
2018-01-16T07:31:19.395Z,0.80
2018-01-16T07:32:25.113Z,1.20
2018-01-16T07:33:30.815Z,0.60
2018-01-16T07:34:36.543Z,0.70
2018-01-16T07:35:43.015Z,0.80
2018-01-16T07:36:48.781Z,1.58
2018-01-16T07:37:54.488Z,0.55
2018-01-16T07:39:01.054Z,0.60
2018-01-16T07:40:06.766Z,1.87
2018-01-16T07:41:12.472Z,1.87
2018-01-16T07:42:18.230Z,0.62
2018-01-16T07:43:23.997Z,1.48
2018-01-16T07:44:30.472Z,2.15
2018-01-16T07:45:36.197Z,1.02
2018-01-16T07:46:42.714Z,1.85
2018-01-16T07:47:48.451Z,0.90
2018-01-16T07:48:54.161Z,1.83
2018-01-16T07:49:59.873Z,0.68
2018-01-16T07:51:06.353Z,2.85
2018-01-16T07:52:12.101Z,1.70
2018-01-16T07:53:17.874Z,1.42
2018-01-16T07:54:23.800Z,1.33
2018-01-16T07:55:29.533Z,1.00
2018-01-16T07:56:35.262Z,0.95
2018-01-16T07:57:40.965Z,1.15
2018-01-16T07:58:46.747Z,1.35
2018-01-16T07:59:52.474Z,1.67
2018-01-16T08:00:59.004Z,0.90
2018-01-16T08:02:04.929Z,1.05
2018-01-16T08:03:10.665Z,1.55
2018-01-16T08:04:16.419Z,2.15
2018-01-16T08:05:22.132Z,2.67
2018-01-16T08:06:27.874Z,0.50
2018-01-16T08:07:33.612Z,0.98
2018-01-16T08:08:39.393Z,1.75
2018-01-16T08:09:45.140Z,0.82
2018-01-16T08:10:51.637Z,0.90
2018-01-16T08:11:58.108Z,0.60
2018-01-16T08:13:03.863Z,1.37
2018-01-16T08:14:09.803Z,0.75
2018-01-16T08:15:15.532Z,2.95
2018-01-16T08:16:21.240Z,0.65
2018-01-16T08:17:26.971Z,0.93
2018-01-16T08:18:32.560Z,0.95
2018-01-16T08:19:38.274Z,0.68
2018-01-16T08:20:44.800Z,0.50
2018-01-16T08:21:50.499Z,1.10
2018-01-16T08:22:56.209Z,0.50
2018-01-16T08:24:02.689Z,0.60
2018-01-16T08:25:08.397Z,0.50
2018-01-16T08:26:14.486Z,1.67
2018-01-16T08:27:20.200Z,0.70
2018-01-16T08:28:26.677Z,0.80
2018-01-16T08:29:32.439Z,1.02
2018-01-16T08:30:38.170Z,1.80
2018-01-16T08:31:43.918Z,0.60
2018-01-16T08:32:49.459Z,2.50
2018-01-16T08:33:55.195Z,2.25
2018-01-16T08:35:00.909Z,1.30
2018-01-16T08:36:06.421Z,3.83
2018-01-16T08:37:12.951Z,1.25
2018-01-16T08:38:18.689Z,2.35
2018-01-16T08:39:24.594Z,1.87
2018-01-16T08:40:30.430Z,3.10
2018-01-16T08:41:36.947Z,4.30
2018-01-16T08:42:42.709Z,4.15
2018-01-16T08:43:49.924Z,5.95
2018-01-16T08:44:55.439Z,0.57
2018-01-16T08:46:01.934Z,0.88
2018-01-16T08:47:07.679Z,1.37
2018-01-16T08:48:13.415Z,1.77
2018-01-16T08:49:19.142Z,1.77
2018-01-16T08:50:24.915Z,1.58
2018-01-16T08:51:30.620Z,0.50
2018-01-16T08:52:36.958Z,0.82
2018-01-16T08:53:43.469Z,0.98
2018-01-16T08:54:49.203Z,0.98
2018-01-16T08:55:54.945Z,0.50
2018-01-16T08:57:00.647Z,0.98
2018-01-16T08:58:06.382Z,2.58
2018-01-16T08:59:12.893Z,1.33
2018-01-16T09:00:18.622Z,1.25
2018-01-16T09:01:24.328Z,0.45
2018-01-16T09:02:30.062Z,1.02
2018-01-16T09:03:36.009Z,0.98
2018-01-16T09:04:42.558Z,0.70
2018-01-16T09:05:49.031Z,0.50
2018-01-16T09:06:54.747Z,0.62
2018-01-16T09:08:01.958Z,0.52
2018-01-16T09:09:07.664Z,0.47
2018-01-16T09:10:13.438Z,0.60
2018-01-16T09:11:18.981Z,1.12
2018-01-16T09:12:24.687Z,1.12
2018-01-16T09:13:30.396Z,0.85
2018-01-16T09:14:36.108Z,1.48
2018-01-16T09:15:42.129Z,1.15
2018-01-16T09:16:48.612Z,0.77
2018-01-16T09:17:54.345Z,1.08
2018-01-16T09:19:00.050Z,1.30
2018-01-16T09:20:05.765Z,2.58
2018-01-16T09:21:11.518Z,1.75
2018-01-16T09:22:17.248Z,0.50
2018-01-16T09:23:23.032Z,0.82
2018-01-16T09:24:29.531Z,0.60
2018-01-16T09:25:35.319Z,0.80
2018-01-16T09:26:41.866Z,0.50
2018-01-16T09:27:47.651Z,0.60
2018-01-16T09:28:54.196Z,0.50
2018-01-16T09:30:00.668Z,0.85
2018-01-16T09:31:06.497Z,2.05
2018-01-16T09:32:13.025Z,0.40
2018-01-16T09:33:18.743Z,0.80
2018-01-16T09:34:24.487Z,1.58
2018-01-16T09:35:30.232Z,0.40
2018-01-16T09:36:35.967Z,1.10
2018-01-16T09:37:41.701Z,0.80
2018-01-16T09:38:47.431Z,1.50
2018-01-16T09:39:53.395Z,0.60
2018-01-16T09:40:59.133Z,0.62
2018-01-16T09:42:04.908Z,1.23
2018-01-16T09:43:10.689Z,0.60
2018-01-16T09:44:16.440Z,0.90
2018-01-16T09:45:22.181Z,2.17
2018-01-16T09:46:27.923Z,1.33
2018-01-16T09:47:33.667Z,0.82
2018-01-16T09:48:39.426Z,0.70
2018-01-16T09:49:45.207Z,0.88
2018-01-16T09:50:51.701Z,0.93
2018-01-16T09:51:57.525Z,0.85
2018-01-16T09:53:04.043Z,1.35
2018-01-16T09:54:09.810Z,1.12
2018-01-16T09:55:16.385Z,0.90
2018-01-16T09:56:22.127Z,1.12
2018-01-16T09:57:28.733Z,1.17
2018-01-16T09:58:34.464Z,1.10
2018-01-16T09:59:40.227Z,0.85
2018-01-16T10:00:45.974Z,2.40
2018-01-16T10:01:51.718Z,0.70
2018-01-16T10:02:57.460Z,0.65
2018-01-16T10:04:03.217Z,0.70
2018-01-16T10:05:08.964Z,0.60
2018-01-16T10:06:15.473Z,0.50
2018-01-16T10:07:21.216Z,1.65
2018-01-16T10:08:26.929Z,0.70
2018-01-16T10:09:32.657Z,0.82
2018-01-16T10:10:39.206Z,1.20
2018-01-16T10:11:44.935Z,0.50
2018-01-16T10:12:50.682Z,1.08
2018-01-16T10:13:56.442Z,1.00
2018-01-16T10:15:02.943Z,0.70
2018-01-16T10:16:08.694Z,1.12
2018-01-16T10:17:15.185Z,0.62
2018-01-16T10:18:21.684Z,1.08
2018-01-16T10:19:27.507Z,1.17
2018-01-16T10:20:33.244Z,0.60
2018-01-16T10:21:39.778Z,1.52
2018-01-16T10:22:45.540Z,1.45
2018-01-16T10:23:52.048Z,0.60
2018-01-16T10:24:57.778Z,0.60
2018-01-16T10:26:03.519Z,0.80
2018-01-16T10:27:09.299Z,1.08
2018-01-16T10:28:15.795Z,1.73
2018-01-16T10:29:21.566Z,0.60
2018-01-16T10:30:27.335Z,0.75
2018-01-16T10:31:33.821Z,0.60
2018-01-16T10:32:40.362Z,2.28
2018-01-16T10:33:47.075Z,0.68
2018-01-16T10:34:52.800Z,6.18
2018-01-16T10:35:58.547Z,2.90
2018-01-16T10:37:04.283Z,0.52
2018-01-16T10:38:10.032Z,0.70
2018-01-16T10:39:15.790Z,1.08
2018-01-16T10:40:21.523Z,1.15
2018-01-16T10:41:27.262Z,1.40
2018-01-16T10:42:32.971Z,0.40
2018-01-16T10:43:38.535Z,0.80
2018-01-16T10:44:44.275Z,2.65
2018-01-16T10:45:49.993Z,0.60
2018-01-16T10:46:55.955Z,0.50
2018-01-16T10:48:01.666Z,0.95
2018-01-16T10:49:07.512Z,0.52
2018-01-16T10:50:13.066Z,0.57
2018-01-16T10:51:19.576Z,0.65
2018-01-16T10:52:26.059Z,0.50
2018-01-16T10:53:31.790Z,0.80
2018-01-16T10:54:39.043Z,0.57
2018-01-16T10:55:44.824Z,1.58
2018-01-16T10:56:50.774Z,0.50
2018-01-16T10:57:57.601Z,0.85
2018-01-16T10:59:03.340Z,1.10
2018-01-16T11:00:09.108Z,0.50
2018-01-16T11:01:14.859Z,0.80
2018-01-16T11:02:21.162Z,0.88
2018-01-16T11:03:26.884Z,0.55
2018-01-16T11:04:32.922Z,0.40
2018-01-16T11:05:39.450Z,0.50
2018-01-16T11:06:45.194Z,0.70
2018-01-16T11:07:50.931Z,0.60
2018-01-16T11:08:58.202Z,0.70
2018-01-16T11:10:04.018Z,1.02
2018-01-16T11:11:10.116Z,0.40
2018-01-16T11:12:15.855Z,0.60
2018-01-16T11:13:22.378Z,0.98
2018-01-16T11:14:28.636Z,2.78
2018-01-16T11:15:34.418Z,0.52
2018-01-16T11:16:41.348Z,1.12
2018-01-16T11:17:47.087Z,0.50
2018-01-16T11:18:52.836Z,0.80
2018-01-16T11:19:58.560Z,0.65
2018-01-16T11:21:04.307Z,0.50
2018-01-16T11:22:10.096Z,1.05
2018-01-16T11:23:16.596Z,0.77
2018-01-16T11:24:22.336Z,1.87
2018-01-16T11:25:28.069Z,0.50
2018-01-16T11:26:33.806Z,0.50
2018-01-16T11:27:39.617Z,0.90
2018-01-16T11:28:46.119Z,0.50
2018-01-16T11:29:51.682Z,0.80
2018-01-16T11:30:57.418Z,0.40
2018-01-16T11:32:03.173Z,0.50
2018-01-16T11:33:08.929Z,0.62
2018-01-16T11:34:14.681Z,0.80
2018-01-16T11:35:21.204Z,0.93
2018-01-16T11:36:26.953Z,0.50
2018-01-16T11:37:32.714Z,1.77
2018-01-16T11:38:38.467Z,0.65
2018-01-16T11:39:44.243Z,1.15
2018-01-16T11:40:49.987Z,1.12
2018-01-16T11:41:56.526Z,0.57
2018-01-16T11:43:02.243Z,0.52
2018-01-16T11:44:08.796Z,1.37
2018-01-16T11:45:16.210Z,1.23
2018-01-16T11:46:22.037Z,0.65
2018-01-16T11:47:28.536Z,1.90
2018-01-16T11:48:34.271Z,1.58
2018-01-16T11:49:40.084Z,2.47
2018-01-16T11:50:45.831Z,0.93
2018-01-16T11:51:51.567Z,0.43
2018-01-16T11:52:58.047Z,0.70
2018-01-16T11:54:04.509Z,0.70
2018-01-16T11:55:10.354Z,1.33
2018-01-16T11:56:15.937Z,0.60
2018-01-16T11:57:22.445Z,0.50
2018-01-16T11:58:28.192Z,0.98
2018-01-16T11:59:33.916Z,0.70
2018-01-16T12:00:39.676Z,1.95
2018-01-16T12:01:46.194Z,0.50
2018-01-16T12:02:52.727Z,1.70
2018-01-16T12:03:59.324Z,0.50
2018-01-16T12:05:04.862Z,0.62
2018-01-16T12:06:11.195Z,0.65
2018-01-16T12:07:16.786Z,0.50
2018-01-16T12:08:22.371Z,0.30
2018-01-16T12:09:29.054Z,0.45
2018-01-16T12:10:34.830Z,0.80
2018-01-16T12:11:41.438Z,2.25
2018-01-16T12:12:47.160Z,0.60
2018-01-16T12:13:52.875Z,2.08
2018-01-16T12:14:58.612Z,0.70
2018-01-16T12:16:04.406Z,0.40
2018-01-16T12:17:10.930Z,1.20
2018-01-16T12:18:16.679Z,0.85
2018-01-16T12:19:22.396Z,1.12
2018-01-16T12:20:28.113Z,0.60
2018-01-16T12:21:33.826Z,0.82
2018-01-16T12:22:39.582Z,1.80
2018-01-16T12:23:46.054Z,1.42
2018-01-16T12:24:51.798Z,1.42
2018-01-16T12:25:58.214Z,0.93
2018-01-16T12:27:04.882Z,0.50
2018-01-16T12:28:11.431Z,2.25
2018-01-16T12:29:17.151Z,2.97
2018-01-16T12:30:22.866Z,0.60
2018-01-16T12:31:28.616Z,1.30
2018-01-16T12:32:34.374Z,1.05
2018-01-16T12:33:40.114Z,1.40
2018-01-16T12:34:45.841Z,0.95
2018-01-16T12:35:51.601Z,0.57
2018-01-16T12:36:57.077Z,1.25
2018-01-16T12:38:03.634Z,0.40
2018-01-16T12:39:11.301Z,0.50
2018-01-16T12:40:17.020Z,0.80
2018-01-16T12:41:23.329Z,0.40
2018-01-16T12:42:29.074Z,2.15
2018-01-16T12:43:37.557Z,0.73
2018-01-16T12:44:44.134Z,0.50
2018-01-16T12:45:50.603Z,0.45
2018-01-16T12:46:57.220Z,0.98
2018-01-16T12:48:03.109Z,1.50
2018-01-16T12:49:08.820Z,0.73
2018-01-16T12:50:14.631Z,1.23
2018-01-16T12:51:20.439Z,0.40
2018-01-16T12:52:26.272Z,0.40
2018-01-16T12:53:32.768Z,0.50
2018-01-16T12:54:38.779Z,0.98
2018-01-16T12:55:45.296Z,0.60
2018-01-16T12:56:51.035Z,1.45
2018-01-16T12:57:56.770Z,0.55
2018-01-16T12:59:02.511Z,0.45
2018-01-16T13:00:08.299Z,0.80
2018-01-16T13:01:14.823Z,0.30
2018-01-16T13:02:20.532Z,0.40
2018-01-16T13:03:26.258Z,0.50
2018-01-16T13:04:31.972Z,0.93
2018-01-16T13:05:38.463Z,0.40
2018-01-16T13:06:44.213Z,0.30
2018-01-16T13:07:49.925Z,1.15
2018-01-16T13:08:56.405Z,0.35
2018-01-16T13:10:02.118Z,0.35
2018-01-16T13:11:08.624Z,0.30
2018-01-16T13:12:14.374Z,0.55
2018-01-16T13:13:20.098Z,0.30
2018-01-16T13:14:25.921Z,0.30
2018-01-16T13:15:31.637Z,0.95
2018-01-16T13:16:38.134Z,0.60
2018-01-16T13:17:43.945Z,0.55
2018-01-16T13:18:50.445Z,0.40
2018-01-16T13:19:56.247Z,0.47
2018-01-16T13:21:03.945Z,0.60
2018-01-16T13:22:09.675Z,0.70
2018-01-16T13:23:16.342Z,1.62
2018-01-16T13:24:22.071Z,0.40
2018-01-16T13:25:28.582Z,1.20
2018-01-16T13:26:34.292Z,1.00
2018-01-16T13:27:40.074Z,0.40
2018-01-16T13:28:45.834Z,1.40
2018-01-16T13:29:51.550Z,1.15
2018-01-16T13:30:57.852Z,0.50
2018-01-16T13:32:03.660Z,0.40
2018-01-16T13:33:09.393Z,0.60
2018-01-16T13:34:15.142Z,0.57
2018-01-16T13:35:20.866Z,0.50
2018-01-16T13:36:26.246Z,0.73
2018-01-16T13:37:32.773Z,1.20
2018-01-16T13:38:38.559Z,0.40
2018-01-16T13:39:45.086Z,0.35
2018-01-16T13:40:50.788Z,0.50
2018-01-16T13:41:56.516Z,0.40
2018-01-16T13:43:02.236Z,0.40
2018-01-16T13:44:08.718Z,0.60
2018-01-16T13:45:14.541Z,0.50
2018-01-16T13:46:21.024Z,0.77
2018-01-16T13:47:26.751Z,0.50
2018-01-16T13:48:32.477Z,0.70
2018-01-16T13:49:38.976Z,0.60
2018-01-16T13:50:44.766Z,0.55
2018-01-16T13:51:51.245Z,1.15
2018-01-16T13:52:56.953Z,0.73
2018-01-16T13:54:02.730Z,0.50
2018-01-16T13:55:08.445Z,0.40
2018-01-16T13:56:15.024Z,0.77
2018-01-16T13:57:21.504Z,0.40
2018-01-16T13:58:27.261Z,0.62
2018-01-16T13:59:32.976Z,0.50
2018-01-16T14:00:38.733Z,3.20
2018-01-16T14:01:44.496Z,0.70
2018-01-16T14:02:50.229Z,1.95
2018-01-16T14:03:55.944Z,1.77
2018-01-16T14:05:01.687Z,1.10
2018-01-16T14:06:07.409Z,0.88
2018-01-16T14:07:13.972Z,0.85
2018-01-16T14:08:20.450Z,0.68
2018-01-16T14:09:26.183Z,0.50
2018-01-16T14:10:31.994Z,0.40
2018-01-16T14:11:37.705Z,0.40
2018-01-16T14:12:43.453Z,0.50
2018-01-16T14:13:49.184Z,0.40
2018-01-16T14:14:54.916Z,0.40
2018-01-16T14:16:00.717Z,1.15
2018-01-16T14:17:07.248Z,0.47
2018-01-16T14:18:13.126Z,0.40
2018-01-16T14:19:18.916Z,0.40
2018-01-16T14:20:24.780Z,0.40
2018-01-16T14:21:31.291Z,0.40
2018-01-16T14:22:37.098Z,0.60
2018-01-16T14:23:43.669Z,0.40
2018-01-16T14:24:49.638Z,0.85
2018-01-16T14:25:55.371Z,0.82
2018-01-16T14:27:01.391Z,1.87
2018-01-16T14:28:07.876Z,1.05
2018-01-16T14:29:13.630Z,0.50
2018-01-16T14:30:19.399Z,0.50
2018-01-16T14:31:25.109Z,1.20
2018-01-16T14:32:31.140Z,0.40
2018-01-16T14:33:36.949Z,0.40
2018-01-16T14:34:42.820Z,0.95
2018-01-16T14:35:48.558Z,0.50
2018-01-16T14:36:55.076Z,0.50
2018-01-16T14:38:00.810Z,0.50